Time;durP1;ratioP1;P1;durP2;ratioP2;P2;SDS_P1;SDS_P2;PMS_P1;PMS_P2;Temp;Humidity;BMP_temperature;BMP_pressure;BME280_temperature;BME280_humidity;BME280_pressure;Samples;Min_cycle;Max_cycle;Signal;HPM_P1;HPM_P2
2023/04/13 00:02:02;;;;;;;4.10;1.00;;;;;;;9.41;63.77;99430.84;4125391;28;20070;-65
2023/04/13 00:04:05;;;;;;;4.55;1.15;;;;;;;9.46;63.49;99429.97;4124745;28;20042;-65
2023/04/13 00:06:09;;;;;;;1.60;1.05;;;;;;;9.47;63.66;99423.94;4130027;28;20057;-65
2023/04/13 00:08:13;;;;;;;2.08;1.10;;;;;;;9.46;63.96;99429.97;4129231;28;20038;-65
2023/04/13 00:10:17;;;;;;;5.40;1.00;;;;;;;9.35;63.95;99427.38;4129916;28;20046;-65
2023/04/13 00:12:20;;;;;;;2.28;0.90;;;;;;;9.41;64.04;99419.59;4129415;28;20038;-65
2023/04/13 00:14:26;;;;;;;3.53;0.85;;;;;;;9.39;64.04;99427.38;4130323;28;20139;-65
2023/04/13 00:16:30;;;;;;;2.08;0.80;;;;;;;9.29;64.59;99437.72;4118365;28;20031;-65
2023/04/13 00:18:35;;;;;;;1.13;0.80;;;;;;;9.26;64.43;99425.63;4115417;28;20408;-65
2023/04/13 00:20:40;;;;;;;4.38;0.80;;;;;;;9.26;64.32;99425.63;4128011;28;20408;-65
2023/04/13 00:22:44;;;;;;;1.33;0.70;;;;;;;9.25;64.80;99426.47;4126045;28;20427;-65
2023/04/13 00:24:47;;;;;;;3.63;1.30;;;;;;;9.29;64.21;99424.75;4122183;28;20396;-65
2023/04/13 00:26:53;;;;;;;1.77;0.90;;;;;;;9.29;64.29;99430.81;4107503;28;20046;-65
2023/04/13 00:28:56;;;;;;;2.72;0.82;;;;;;;9.17;64.36;99425.56;4119801;28;20752;-65
2023/04/13 00:31:00;;;;;;;2.83;0.85;;;;;;;9.15;64.43;99422.97;4123993;28;20060;-65
2023/04/13 00:33:05;;;;;;;1.73;0.60;;;;;;;9.21;64.04;99417.84;4108357;28;20039;-65
2023/04/13 00:35:09;;;;;;;2.30;0.90;;;;;;;9.18;64.59;99419.53;4105330;28;20549;-65
2023/04/13 00:37:13;;;;;;;4.63;0.93;;;;;;;9.07;65.14;99419.50;4103528;28;20122;-65
2023/04/13 00:39:22;;;;;;;1.75;0.80;;;;;;;9.07;65.30;99411.75;4099194;28;20059;-65
2023/04/13 00:41:26;;;;;;;2.53;0.90;;;;;;;9.11;65.03;99420.38;4102394;28;20047;-65
2023/04/13 00:43:29;;;;;;;3.13;1.17;;;;;;;9.12;64.81;99417.78;4112038;28;20043;-65
2023/04/13 00:45:37;;;;;;;3.38;1.08;;;;;;;9.17;64.99;99417.78;4086898;28;20062;-65
2023/04/13 00:47:45;;;;;;;1.23;0.80;;;;;;;8.99;64.22;99426.38;4126483;28;20071;-65
2023/04/13 00:49:50;;;;;;;3.00;0.90;;;;;;;8.92;64.56;99422.88;4107176;28;20035;-65
2023/04/13 00:51:52;;;;;;;1.73;0.73;;;;;;;8.98;64.76;99414.28;4110321;28;20509;-65
2023/04/13 00:53:56;;;;;;;3.58;1.05;;;;;;;9.02;64.67;99427.28;4121405;28;20042;-65
2023/04/13 00:56:02;;;;;;;1.17;0.70;;;;;;;9.09;64.33;99422.97;4118032;28;20042;-65
2023/04/13 00:58:06;;;;;;;3.42;0.90;;;;;;;9.02;64.79;99424.69;4111178;28;20046;-65
2023/04/13 01:00:11;;;;;;;2.90;0.93;;;;;;;9.03;64.84;99415.16;4126742;28;20038;-66
2023/04/13 01:02:14;;;;;;;1.92;0.90;;;;;;;8.90;65.08;99416.84;4110826;28;20370;-65
2023/04/13 01:04:18;;;;;;;3.63;0.82;;;;;;;8.88;64.90;99418.56;4114937;28;20050;-66
2023/04/13 01:06:32;;;;;;;2.88;0.70;;;;;;;8.89;65.00;99421.19;4114421;28;20102;-65
2023/04/13 01:08:38;;;;;;;4.68;1.23;;;;;;;8.85;65.04;99418.56;4092742;29;20678;-65
2023/04/13 01:10:50;;;;;;;2.35;0.80;;;;;;;8.87;65.17;99412.50;4107454;28;20044;-65
2023/04/13 01:13:03;;;;;;;1.25;0.70;;;;;;;8.86;64.75;99415.09;4121532;28;20035;-65
2023/04/13 01:15:11;;;;;;;2.25;0.98;;;;;;;8.86;64.58;99415.09;4108319;28;20038;-65
2023/04/13 01:17:20;;;;;;;3.28;1.02;;;;;;;8.89;64.20;99415.09;4109074;28;20100;-66
2023/04/13 01:19:39;;;;;;;1.60;0.90;;;;;;;8.89;63.78;99409.91;4110613;28;20035;-65
2023/04/13 01:21:43;;;;;;;1.73;0.85;;;;;;;8.84;64.55;99407.31;4108774;28;20082;-65
2023/04/13 01:23:56;;;;;;;2.05;1.00;;;;;;;8.80;64.91;99409.91;4101235;28;20066;-65
2023/04/13 01:26:05;;;;;;;4.88;1.02;;;;;;;8.70;64.68;99412.47;4124097;28;20042;-65
2023/04/13 01:28:14;;;;;;;8.13;1.00;;;;;;;8.74;64.00;99411.59;4131738;28;20035;-65
2023/04/13 01:30:20;;;;;;;3.25;0.93;;;;;;;8.79;63.44;99413.34;4109879;28;20070;-65
2023/04/13 01:32:26;;;;;;;3.03;0.80;;;;;;;8.72;63.46;99415.91;4107377;28;20089;-65
2023/04/13 01:34:29;;;;;;;2.05;0.88;;;;;;;8.82;63.25;99413.34;4113001;28;20066;-65
2023/04/13 01:36:33;;;;;;;2.05;0.90;;;;;;;8.73;63.68;99421.94;4121917;28;20039;-65
2023/04/13 01:38:36;;;;;;;2.45;0.90;;;;;;;8.74;64.09;99429.72;4112754;28;20552;-65
2023/04/13 01:40:43;;;;;;;4.05;1.20;;;;;;;8.74;63.90;99421.09;4115028;28;20042;-65
2023/04/13 01:42:46;;;;;;;2.50;1.15;;;;;;;8.71;63.77;99426.25;4108193;28;20043;-65
2023/04/13 01:44:51;;;;;;;3.60;1.33;;;;;;;8.74;63.84;99421.94;4120368;28;20042;-65
2023/04/13 01:47:03;;;;;;;4.40;1.00;;;;;;;8.76;63.79;99431.47;4121715;28;20390;-65
2023/04/13 01:49:25;;;;;;;4.20;0.93;;;;;;;8.67;64.22;99434.88;4130060;28;20042;-65
2023/04/13 01:51:53;;;;;;;2.63;0.77;;;;;;;8.69;64.35;99431.44;4125462;28;20046;-65
2023/04/13 01:54:06;;;;;;;3.15;1.30;;;;;;;8.72;64.43;99436.63;4108634;28;20059;-65
2023/04/13 01:56:11;;;;;;;6.32;1.45;;;;;;;8.78;63.47;99446.16;4107103;28;20110;-66
2023/04/13 01:58:18;;;;;;;5.53;0.98;;;;;;;8.76;63.66;99444.41;4110796;28;20039;-66
2023/04/13 02:00:35;;;;;;;2.83;1.20;;;;;;;8.79;63.21;99447.91;4088613;28;20047;-66
2023/04/13 02:02:40;;;;;;;5.20;1.38;;;;;;;8.67;62.97;99451.31;4113371;28;20031;-66
2023/04/13 02:04:44;;;;;;;4.53;1.00;;;;;;;8.74;63.18;99440.09;4126447;28;20038;-66
2023/04/13 02:06:50;;;;;;;3.50;1.10;;;;;;;8.81;63.11;99440.16;4107851;28;20062;-66
2023/04/13 02:08:58;;;;;;;2.35;0.90;;;;;;;8.70;63.90;99440.94;4106087;28;20039;-66
2023/04/13 02:11:02;;;;;;;3.10;1.08;;;;;;;8.79;63.56;99445.31;4095785;29;20179;-65
2023/04/13 02:13:06;;;;;;;1.77;1.05;;;;;;;8.90;62.63;99443.63;4129366;28;20484;-66
2023/04/13 02:15:10;;;;;;;3.40;1.10;;;;;;;8.82;62.81;99431.47;4106917;28;20125;-65
2023/04/13 02:17:16;;;;;;;6.90;1.65;;;;;;;8.79;63.63;99436.66;4110649;28;20035;-65
2023/04/13 02:19:20;;;;;;;5.07;1.42;;;;;;;8.85;63.74;99444.50;4102858;28;20054;-65
2023/04/13 02:21:23;;;;;;;4.15;1.35;;;;;;;8.91;63.38;99440.19;4114375;28;20741;-65
2023/04/13 02:23:26;;;;;;;6.28;1.52;;;;;;;8.91;63.56;99440.19;4105969;28;20082;-65
2023/04/13 02:25:29;;;;;;;4.05;1.40;;;;;;;8.92;64.16;99430.66;4111488;28;20468;-65
2023/04/13 02:27:33;;;;;;;4.85;1.25;;;;;;;8.88;63.94;99437.56;4124594;28;20041;-65
2023/04/13 02:29:36;;;;;;;6.55;1.67;;;;;;;8.82;64.13;99440.16;4125649;28;20521;-65
2023/04/13 02:31:44;;;;;;;5.53;1.95;;;;;;;8.90;64.30;99438.44;4113195;28;20545;-65
2023/04/13 02:33:48;;;;;;;7.13;1.70;;;;;;;8.90;64.32;99442.75;4128997;28;20045;-65
2023/04/13 02:35:51;;;;;;;3.17;1.50;;;;;;;8.94;64.13;99439.34;4126673;28;20143;-65
2023/04/13 02:37:56;;;;;;;4.25;1.80;;;;;;;9.00;63.82;99433.31;4109675;28;20042;-65
2023/04/13 02:39:59;;;;;;;;;;;;;;;8.93;64.24;99441.91;4109053;28;20039;-65
2023/04/13 02:42:03;;;;;;;3.58;1.65;;;;;;;8.87;64.67;99442.75;4111156;28;19926;-65
2023/04/13 02:44:07;;;;;;;2.55;1.30;;;;;;;8.85;64.14;99434.97;4094045;28;20049;-65
2023/04/13 02:46:20;;;;;;;10.07;1.55;;;;;;;8.96;63.68;99435.00;4113654;28;20457;-65
2023/04/13 02:48:27;;;;;;;5.82;1.73;;;;;;;9.01;63.03;99435.91;4104547;28;20035;-65
2023/04/13 02:50:33;;;;;;;4.07;1.60;;;;;;;9.02;63.15;99435.06;4128928;28;20726;-66
2023/04/13 02:52:42;;;;;;;4.38;1.45;;;;;;;8.89;63.95;99425.47;4111084;28;20077;-65
2023/04/13 02:54:45;;;;;;;3.38;1.58;;;;;;;8.87;63.72;99432.38;4124356;28;20049;-65
2023/04/13 02:56:48;;;;;;;7.45;1.40;;;;;;;8.91;63.68;99428.97;4108314;28;20166;-65
2023/04/13 02:58:51;;;;;;;3.55;1.52;;;;;;;8.90;63.57;99432.41;4123702;28;20101;-65
2023/04/13 03:00:55;;;;;;;2.63;1.10;;;;;;;8.90;63.72;99437.59;4106865;28;20044;-65
2023/04/13 03:02:59;;;;;;;4.38;1.08;;;;;;;8.97;63.82;99436.75;4109125;28;20050;-65
2023/04/13 03:05:07;;;;;;;11.32;2.10;;;;;;;9.05;63.30;99426.41;4123382;28;20479;-66
2023/04/13 03:07:13;;;;;;;3.30;1.10;;;;;;;9.01;63.04;99438.50;4112383;28;20047;-65
2023/04/13 03:09:20;;;;;;;2.50;1.08;;;;;;;9.06;63.14;99441.97;4122225;28;20113;-65
2023/04/13 03:11:28;;;;;;;3.63;1.25;;;;;;;9.02;62.15;99442.84;4101552;28;20560;-65
2023/04/13 03:13:45;;;;;;;2.35;1.10;;;;;;;9.01;62.40;99435.03;4123640;28;20038;-65
2023/04/13 03:15:50;;;;;;;3.45;0.95;;;;;;;9.01;61.86;99441.09;4111438;28;20039;-65
2023/04/13 03:17:53;;;;;;;2.22;0.77;;;;;;;9.00;62.29;99449.72;4111956;28;20035;-65
2023/04/13 03:19:59;;;;;;;8.32;1.33;;;;;;;8.98;63.14;99438.50;4126490;28;20133;-65
2023/04/13 03:22:02;;;;;;;2.47;1.15;;;;;;;8.99;62.60;99445.38;4120843;28;20042;-65
2023/04/13 03:24:08;;;;;;;3.05;1.10;;;;;;;9.05;62.26;99442.84;4102436;28;20046;-65
2023/04/13 03:26:12;;;;;;;2.92;1.08;;;;;;;9.05;62.50;99447.16;4110771;28;20093;-65
2023/04/13 03:28:17;;;;;;;3.53;1.35;;;;;;;9.07;62.22;99446.28;4126712;28;20038;-65
2023/04/13 03:30:21;;;;;;;5.55;1.23;;;;;;;9.08;62.09;99442.84;4110764;28;20165;-65
2023/04/13 03:32:31;;;;;;;3.75;1.13;;;;;;;9.04;61.95;99446.28;4112168;28;20089;-65
2023/04/13 03:34:35;;;;;;;1.80;1.08;;;;;;;8.99;62.04;99452.31;4112964;28;20048;-65
2023/04/13 03:36:44;;;;;;;8.02;1.58;;;;;;;9.07;61.64;99440.25;4087948;28;20039;-65
2023/04/13 03:38:48;;;;;;;3.63;1.05;;;;;;;9.09;61.88;99444.56;4134891;28;20034;-65
2023/04/13 03:40:53;;;;;;;5.45;1.95;;;;;;;9.08;61.23;99436.78;4111892;28;20031;-65
2023/04/13 03:42:56;;;;;;;4.35;1.10;;;;;;;9.00;61.58;99444.53;4110628;28;20034;-65
2023/04/13 03:45:02;;;;;;;6.15;1.48;;;;;;;9.09;61.03;99434.19;4125887;28;20072;-65
2023/04/13 03:47:08;;;;;;;4.72;1.63;;;;;;;9.06;61.46;99434.19;4111618;28;20061;-66
2023/04/13 03:49:12;;;;;;;6.68;1.45;;;;;;;9.03;61.76;99444.53;4108959;28;20122;-66
2023/04/13 03:51:15;;;;;;;3.65;0.75;;;;;;;9.00;61.32;99438.50;4128470;28;20440;-66
2023/04/13 03:53:22;;;;;;;4.53;1.63;;;;;;;9.00;61.83;99439.34;4124368;28;20043;-66
2023/04/13 03:55:30;;;;;;;6.25;1.63;;;;;;;9.02;62.28;99431.56;4126498;28;20142;-67
2023/04/13 03:57:41;;;;;;;5.55;1.95;;;;;;;9.03;61.37;99441.94;4110892;28;20046;-67
2023/04/13 03:59:49;;;;;;;4.05;1.10;;;;;;;9.02;61.85;99436.75;4122995;28;20435;-66
2023/04/13 04:02:01;;;;;;;6.43;1.45;;;;;;;8.94;61.81;99444.53;4127740;28;20034;-67
2023/04/13 04:04:05;;;;;;;6.75;1.30;;;;;;;8.89;60.63;99447.09;4108673;28;20621;-66
2023/04/13 04:06:09;;;;;;;2.95;0.95;;;;;;;8.83;61.22;99451.38;4125993;28;20049;-66
2023/04/13 04:08:15;;;;;;;2.78;0.70;;;;;;;8.78;61.60;99453.09;4116016;28;20047;-66
2023/04/13 04:10:19;;;;;;;3.83;0.95;;;;;;;8.87;61.48;99447.94;4095585;28;20050;-66
2023/04/13 04:12:22;;;;;;;4.85;1.30;;;;;;;8.77;62.01;99448.75;4112033;28;20039;-66
2023/04/13 04:14:26;;;;;;;4.95;1.40;;;;;;;8.69;61.54;99449.56;4112568;28;20485;-66
2023/04/13 04:16:37;;;;;;;4.82;1.30;;;;;;;8.73;61.32;99458.22;4091687;28;20047;-66
2023/04/13 04:18:46;;;;;;;5.82;1.50;;;;;;;8.64;61.62;99461.63;4099134;28;20050;-66
2023/04/13 04:20:52;;;;;;;5.63;1.40;;;;;;;8.49;62.32;99464.13;4122072;28;20488;-66
2023/04/13 04:22:59;;;;;;;4.97;1.23;;;;;;;8.66;62.10;99459.03;4124144;28;20377;-66
2023/04/13 04:25:07;;;;;;;5.93;1.45;;;;;;;8.63;62.02;99454.72;4104680;28;20066;-65
2023/04/13 04:27:13;;;;;;;3.88;1.13;;;;;;;8.53;61.30;99452.94;4111860;28;20042;-65
2023/04/13 04:29:20;;;;;;;5.35;1.38;;;;;;;8.59;61.26;99458.16;4134565;28;20076;-65
2023/04/13 04:31:33;;;;;;;5.53;1.38;;;;;;;8.70;62.04;99460.78;4111409;28;20034;-66
2023/04/13 04:33:41;;;;;;;6.53;1.20;;;;;;;8.67;61.82;99466.84;4111269;28;20407;-65
2023/04/13 04:35:49;;;;;;;6.22;1.70;;;;;;;8.65;61.09;99468.56;4126632;28;20519;-65
2023/04/13 04:37:54;;;;;;;6.53;1.50;;;;;;;8.45;61.34;99472.75;4109604;28;20436;-65
2023/04/13 04:39:58;;;;;;;7.07;1.13;;;;;;;8.55;61.40;99474.53;4124930;28;20551;-65
2023/04/13 04:42:02;;;;;;;3.20;0.98;;;;;;;8.55;61.28;99477.13;4123327;28;20101;-65
2023/04/13 04:44:07;;;;;;;7.85;1.98;;;;;;;8.56;61.68;99484.03;4128359;28;20045;-65
2023/04/13 04:46:15;;;;;;;2.83;1.23;;;;;;;8.71;61.67;99484.13;4112641;28;20073;-65
2023/04/13 04:48:26;;;;;;;10.40;1.70;;;;;;;8.82;62.40;99488.50;4112383;28;20540;-65
2023/04/13 04:50:32;;;;;;;7.00;1.77;;;;;;;8.75;61.82;99485.03;4122699;28;20038;-65
2023/04/13 04:52:44;;;;;;;3.03;1.20;;;;;;;8.76;62.04;99486.78;4105220;28;20125;-66
2023/04/13 04:54:52;;;;;;;4.13;1.35;;;;;;;8.72;61.77;99485.88;4112927;28;20047;-65
2023/04/13 04:56:56;;;;;;;4.20;1.10;;;;;;;8.80;61.87;99498.84;4124322;28;20408;-66
2023/04/13 04:59:00;;;;;;;;;;;;;;;8.62;61.71;99498.78;4112703;28;20130;-65
2023/04/13 05:01:12;;;;;;;5.07;1.10;;;;;;;8.52;61.74;99506.47;4112611;28;20020;-65
2023/04/13 05:03:16;;;;;;;7.97;1.38;;;;;;;8.51;61.96;99509.94;4111815;28;20161;-65
2023/04/13 05:05:26;;;;;;;5.82;1.48;;;;;;;8.52;62.37;99492.66;4112247;28;20070;-66
2023/04/13 05:07:29;;;;;;;5.95;1.50;;;;;;;8.52;61.92;99501.28;4112467;28;20047;-65
2023/04/13 05:09:35;;;;;;;3.67;1.35;;;;;;;8.55;62.29;99506.47;4128319;28;20062;-65
2023/04/13 05:11:38;;;;;;;3.13;1.00;;;;;;;8.56;62.26;99509.94;4096292;29;20035;-65
2023/04/13 05:13:44;;;;;;;7.03;1.95;;;;;;;8.62;61.96;99504.81;4105958;28;20066;-65
2023/04/13 05:15:54;;;;;;;4.68;1.27;;;;;;;8.70;62.40;99510.91;4112376;28;20110;-65
2023/04/13 05:17:57;;;;;;;3.00;1.17;;;;;;;8.68;61.97;99514.34;4110872;28;20106;-65
2023/04/13 05:20:05;;;;;;;6.47;1.50;;;;;;;8.67;61.58;99516.09;4123750;28;20038;-65
2023/04/13 05:22:19;;;;;;;6.72;1.33;;;;;;;8.69;61.67;99510.91;4093199;28;20043;-65
2023/04/13 05:24:27;;;;;;;5.30;1.20;;;;;;;8.59;61.44;99515.16;4109620;28;20043;-65
2023/04/13 05:26:30;;;;;;;7.82;1.38;;;;;;;8.60;61.95;99516.91;4111701;28;20042;-65
2023/04/13 05:28:34;;;;;;;10.05;2.20;;;;;;;8.67;61.36;99513.50;4112206;28;20039;-66
2023/04/13 05:30:37;;;;;;;7.90;1.60;;;;;;;8.68;61.91;99517.78;4128206;28;20038;-65
2023/04/13 05:32:42;;;;;;;8.05;1.45;;;;;;;8.67;61.34;99510.91;4111579;28;20460;-66
2023/04/13 05:34:45;;;;;;;6.90;1.70;;;;;;;8.72;61.84;99516.09;4107317;28;20107;-66
2023/04/13 05:36:54;;;;;;;8.00;1.90;;;;;;;8.76;61.41;99511.78;4120374;28;20121;-66
2023/04/13 05:38:59;;;;;;;5.25;1.58;;;;;;;8.66;61.61;99526.41;4111881;28;20093;-65
2023/04/13 05:41:13;;;;;;;3.60;1.23;;;;;;;8.57;61.59;99522.03;4099968;28;20081;-77
2023/04/13 05:43:16;;;;;;;10.85;2.00;;;;;;;8.58;61.65;99523.78;4099257;28;20039;-76
2023/04/13 05:45:23;;;;;;;11.02;1.27;;;;;;;8.68;61.98;99535.94;4099868;28;20035;-76
2023/04/13 05:47:38;;;;;;;6.13;1.13;;;;;;;8.78;61.87;99533.41;4115119;28;20098;-76
2023/04/13 05:49:46;;;;;;;7.60;1.73;;;;;;;8.80;62.08;99532.56;4116302;28;20042;-76
2023/04/13 05:51:54;;;;;;;5.05;1.33;;;;;;;8.80;61.56;99523.91;4103514;28;20480;-77
2023/04/13 05:54:08;;;;;;;7.72;2.05;;;;;;;8.84;61.71;99531.72;4105689;28;20043;-78
2023/04/13 05:56:11;;;;;;;10.35;2.03;;;;;;;8.72;61.61;99542.88;4093201;29;20039;-77
2023/04/13 05:58:17;;;;;;;8.88;1.73;;;;;;;8.79;61.94;99550.69;4096607;29;20102;-77
2023/04/13 06:00:21;;;;;;;;;;;;;;;8.79;61.26;99556.75;4087115;29;20438;-77
2023/04/13 06:02:34;;;;;;;6.88;1.50;;;;;;;8.86;61.74;99549.88;4113929;28;19922;-77
2023/04/13 06:04:38;;;;;;;6.18;1.88;;;;;;;8.86;61.65;99561.13;4102014;29;20453;-77
2023/04/13 06:06:41;;;;;;;6.13;1.85;;;;;;;8.90;61.69;99549.03;4113181;28;20045;-77
2023/04/13 06:08:44;;;;;;;5.78;1.20;;;;;;;8.89;61.80;99552.47;4085751;29;20043;-76
2023/04/13 06:10:48;;;;;;;7.82;1.52;;;;;;;8.80;61.70;99549.84;4107235;28;20455;-77
2023/04/13 06:12:52;;;;;;;6.65;1.92;;;;;;;8.83;61.42;99560.22;4079747;29;20074;-77
2023/04/13 06:14:55;;;;;;;7.95;1.73;;;;;;;8.83;61.72;99555.88;4088339;29;20042;-77
2023/04/13 06:16:58;;;;;;;7.97;2.00;;;;;;;9.01;62.46;99547.38;4123039;28;20038;-77
2023/04/13 06:19:00;;;;;;;8.05;2.20;;;;;;;9.02;61.28;99551.72;4092914;29;20043;-78
2023/04/13 06:21:07;;;;;;;6.47;1.85;;;;;;;9.04;60.96;99557.78;4106733;28;20147;-77
2023/04/13 06:23:10;;;;;;;7.85;2.05;;;;;;;9.02;61.07;99562.09;4100331;28;20046;-77
2023/04/13 06:25:13;;;;;;;7.70;1.55;;;;;;;8.93;60.92;99555.97;4085839;29;20043;-77
2023/04/13 06:27:19;;;;;;;7.68;1.83;;;;;;;8.88;61.20;99558.53;4106864;28;20034;-77
2023/04/13 06:29:22;;;;;;;5.30;1.70;;;;;;;8.91;61.52;99566.34;4110022;28;20053;-77
2023/04/13 06:31:35;;;;;;;9.13;2.10;;;;;;;9.01;61.18;99560.34;4077780;29;20043;-77
2023/04/13 06:33:44;;;;;;;8.10;1.95;;;;;;;9.11;60.92;99560.38;4106820;28;20066;-77
2023/04/13 06:35:47;;;;;;;6.50;2.13;;;;;;;9.12;60.54;99562.13;4102152;28;20039;-77
2023/04/13 06:37:50;;;;;;;11.60;2.35;;;;;;;9.18;60.57;99572.53;4104758;28;20039;-77
2023/04/13 06:40:01;;;;;;;11.00;2.00;;;;;;;9.16;60.03;99566.47;4091674;29;20350;-77
2023/04/13 06:42:05;;;;;;;8.38;1.77;;;;;;;8.90;60.88;99569.78;4110757;28;20043;-77
2023/04/13 06:44:24;;;;;;;9.38;2.25;;;;;;;8.99;61.52;99567.22;4092334;29;20080;-77
2023/04/13 06:46:29;;;;;;;7.28;1.50;;;;;;;9.01;61.28;99570.72;4101271;28;20045;-77
2023/04/13 06:48:37;;;;;;;13.15;2.85;;;;;;;8.83;60.65;99565.41;4090616;29;20108;-78
2023/04/13 06:50:40;;;;;;;9.63;2.35;;;;;;;8.93;61.21;99569.78;4088853;29;20028;-77
2023/04/13 06:52:44;;;;;;;9.65;2.15;;;;;;;8.99;61.38;99572.41;4104165;28;20520;-77
2023/04/13 06:54:47;;;;;;;6.28;1.60;;;;;;;9.09;61.14;99569.00;4112326;28;20111;-76
2023/04/13 06:57:13;;;;;;;10.60;2.20;;;;;;;8.99;61.17;99571.56;4100557;28;20092;-77
2023/04/13 06:59:16;;;;;;;8.77;2.10;;;;;;;9.05;60.58;99567.28;4119592;28;20049;-77
2023/04/13 07:01:20;;;;;;;7.47;2.33;;;;;;;9.03;60.92;99568.97;4122597;28;20038;-76
2023/04/13 07:03:24;;;;;;;13.02;2.30;;;;;;;9.23;61.09;99581.22;4093459;29;20039;-78
2023/04/13 07:05:27;;;;;;;14.18;3.00;;;;;;;9.15;60.82;99569.94;4095501;29;20436;-77
2023/04/13 07:07:36;;;;;;;8.27;2.22;;;;;;;9.18;60.66;99572.53;4098319;28;20039;-77
2023/04/13 07:09:38;;;;;;;6.80;1.92;;;;;;;9.29;60.97;99580.34;4100274;28;20039;-77
2023/04/13 07:11:41;;;;;;;14.07;2.10;;;;;;;9.17;60.17;99581.16;4082864;29;20075;-76
2023/04/13 07:13:44;;;;;;;9.50;2.33;;;;;;;9.08;60.61;99582.88;4073185;29;20063;-76
2023/04/13 07:15:49;;;;;;;9.45;2.33;;;;;;;9.00;61.11;99589.72;4092088;29;20044;-76
2023/04/13 07:17:54;;;;;;;10.13;1.92;;;;;;;9.05;61.17;99588.03;4094679;29;20449;-76
2023/04/13 07:19:57;;;;;;;7.65;2.47;;;;;;;8.85;61.51;99594.81;4127057;28;20043;-76
2023/04/13 07:22:01;;;;;;;9.55;2.20;;;;;;;8.61;61.78;99591.16;4115813;28;20583;-75
2023/04/13 07:24:06;;;;;;;10.82;2.55;;;;;;;8.69;62.15;99597.28;4085550;29;20126;-76
2023/04/13 07:26:13;;;;;;;6.75;1.52;;;;;;;8.65;61.99;99598.09;4082319;29;20051;-78
2023/04/13 07:28:16;;;;;;;8.20;2.00;;;;;;;8.44;62.31;99598.78;4120258;28;20085;-76
2023/04/13 07:30:21;;;;;;;11.77;2.58;;;;;;;8.40;62.69;99597.00;4109082;28;20039;-76
2023/04/13 07:32:26;;;;;;;9.00;2.67;;;;;;;8.58;63.15;99596.31;4111315;28;20051;-75
2023/04/13 07:34:36;;;;;;;10.60;2.60;;;;;;;8.73;63.18;99590.38;4083599;29;20040;-76
2023/04/13 07:36:41;;;;;;;9.15;2.70;;;;;;;8.68;62.73;99598.13;4085152;29;20493;-76
2023/04/13 07:38:47;;;;;;;17.25;3.08;;;;;;;8.68;63.09;99595.53;4099999;28;20336;-76
2023/04/13 07:40:52;;;;;;;;;;;;;;;8.74;63.56;99595.56;4106532;28;20086;-76
2023/04/13 07:42:55;;;;;;;6.35;2.00;;;;;;;8.93;63.78;99597.44;4108150;28;20393;-76
2023/04/13 07:44:58;;;;;;;9.38;2.58;;;;;;;9.11;63.52;99601.88;4093296;29;20123;-76
2023/04/13 07:47:03;;;;;;;7.82;2.50;;;;;;;9.15;63.58;99604.50;4086597;29;20509;-76
2023/04/13 07:49:08;;;;;;;6.50;2.28;;;;;;;9.12;63.43;99604.47;4099323;28;20031;-76
2023/04/13 07:51:17;;;;;;;12.20;2.53;;;;;;;9.24;63.69;99604.56;4102582;28;20031;-76
2023/04/13 07:53:21;;;;;;;8.65;2.83;;;;;;;9.15;63.38;99606.22;4085280;29;20043;-76
2023/04/13 07:55:24;;;;;;;19.40;3.55;;;;;;;9.16;62.57;99603.63;4124276;28;20038;-74
2023/04/13 07:57:27;;;;;;;9.63;2.30;;;;;;;8.86;63.65;99607.78;4079527;29;20556;-77
2023/04/13 07:59:35;;;;;;;7.28;1.95;;;;;;;8.73;64.57;99612.00;4108958;28;20429;-76
2023/04/13 08:01:38;;;;;;;13.43;2.53;;;;;;;8.88;64.96;99610.38;4082632;29;20314;-76
2023/04/13 08:03:42;;;;;;;11.02;2.63;;;;;;;9.11;65.00;99604.47;4082078;29;20035;-76
2023/04/13 08:05:51;;;;;;;9.15;2.20;;;;;;;9.38;65.04;99604.63;4086781;29;20043;-76
2023/04/13 08:07:55;;;;;;;11.63;3.28;;;;;;;9.61;63.96;99598.69;4106295;28;20038;-75
2023/04/13 08:10:02;;;;;;;;;;;;;;;9.69;62.79;99607.34;4092234;29;20518;-77
2023/04/13 08:12:05;;;;;;;11.57;4.13;;;;;;;9.62;62.06;99610.78;4094539;29;20017;-76
2023/04/13 08:14:10;;;;;;;13.63;2.83;;;;;;;9.65;61.66;99610.81;4085438;29;20482;-76
2023/04/13 08:16:15;;;;;;;9.30;2.35;;;;;;;9.60;62.05;99608.19;4099843;28;20504;-75
2023/04/13 08:18:18;;;;;;;9.93;2.53;;;;;;;9.55;61.78;99604.72;4086527;29;20039;-76
2023/04/13 08:20:21;;;;;;;9.00;2.42;;;;;;;9.60;62.19;99607.31;4089245;29;20172;-77
2023/04/13 08:22:26;;;;;;;10.25;3.10;;;;;;;9.44;61.35;99608.97;4091465;29;20412;-76
2023/04/13 08:24:30;;;;;;;11.38;2.55;;;;;;;9.16;62.00;99610.56;4109958;28;20542;-76
2023/04/13 08:26:33;;;;;;;7.40;1.92;;;;;;;9.06;61.99;99615.66;4075657;29;20533;-76
2023/04/13 08:28:36;;;;;;;9.10;2.50;;;;;;;8.92;62.26;99614.69;4065099;29;20052;-77
2023/04/13 08:30:39;;;;;;;11.48;2.92;;;;;;;8.84;62.47;99624.16;4113773;28;20046;-75
2023/04/13 08:32:42;;;;;;;9.95;2.47;;;;;;;8.76;62.93;99623.22;4115568;28;20086;-76
2023/04/13 08:34:46;;;;;;;11.75;2.63;;;;;;;8.95;62.95;99622.53;4105462;28;20046;-76
2023/04/13 08:36:51;;;;;;;11.40;2.40;;;;;;;8.96;62.78;99629.44;4091010;29;20099;-75
2023/04/13 08:38:54;;;;;;;12.32;2.30;;;;;;;9.26;61.75;99633.09;4089956;29;20042;-75
2023/04/13 08:41:01;;;;;;;11.73;1.98;;;;;;;9.38;61.32;99632.31;4086983;29;20039;-76
2023/04/13 08:43:07;;;;;;;12.88;2.22;;;;;;;9.49;61.74;99625.44;4067557;29;20047;-76
2023/04/13 08:45:11;;;;;;;12.20;2.65;;;;;;;9.56;60.84;99634.13;4082986;29;20048;-75
2023/04/13 08:47:19;;;;;;;12.75;2.53;;;;;;;9.44;60.81;99637.53;4089683;29;20039;-75
2023/04/13 08:49:21;;;;;;;9.10;2.53;;;;;;;9.40;60.10;99636.66;4094691;29;20045;-77
2023/04/13 08:51:46;;;;;;;9.48;2.25;;;;;;;9.55;59.72;99640.16;4111626;28;20496;-78
2023/04/13 08:53:49;;;;;;;12.50;2.55;;;;;;;9.57;60.00;99631.53;4087700;29;20091;-76
2023/04/13 08:56:00;;;;;;;10.25;2.08;;;;;;;9.87;59.30;99632.53;4076640;29;20222;-77
2023/04/13 08:58:04;;;;;;;11.70;2.50;;;;;;;10.18;59.08;99631.75;4109644;28;20070;-76
2023/04/13 09:00:14;;;;;;;10.65;2.88;;;;;;;10.25;58.39;99626.59;4103446;28;20129;-77
2023/04/13 09:02:22;;;;;;;7.38;2.08;;;;;;;10.39;58.57;99616.22;4105800;28;20035;-76
2023/04/13 09:04:35;;;;;;;10.93;2.58;;;;;;;10.55;58.57;99626.66;4091695;29;20122;-75
2023/04/13 09:06:42;;;;;;;9.73;2.00;;;;;;;10.52;57.97;99618.84;4120418;28;20062;-76
2023/04/13 09:08:47;;;;;;;15.32;2.50;;;;;;;10.63;58.38;99610.19;4098754;28;20497;-76
2023/04/13 09:10:50;;;;;;;11.45;2.50;;;;;;;10.63;58.63;99612.78;4085226;29;20046;-77
2023/04/13 09:12:55;;;;;;;8.13;2.25;;;;;;;10.30;58.25;99617.03;4103566;28;20437;-75
2023/04/13 09:14:59;;;;;;;7.38;2.10;;;;;;;10.25;58.66;99623.97;4105505;28;20127;-76
2023/04/13 09:17:06;;;;;;;9.10;2.15;;;;;;;10.20;58.92;99632.63;4095365;29;20095;-76
2023/04/13 09:19:13;;;;;;;8.55;2.88;;;;;;;10.14;59.69;99629.13;4101640;28;20476;-75
2023/04/13 09:21:16;;;;;;;8.13;3.45;;;;;;;10.03;58.91;99642.97;4088876;29;20047;-77
2023/04/13 09:23:19;;;;;;;7.85;1.45;;;;;;;9.67;59.76;99640.22;4108366;28;20077;-77
2023/04/13 09:25:23;;;;;;;5.68;1.58;;;;;;;9.64;59.94;99648.00;4112184;28;20035;-76
2023/04/13 09:27:26;;;;;;;6.43;1.60;;;;;;;9.74;59.82;99651.53;4113958;28;20471;-77
2023/04/13 09:29:31;;;;;;;8.30;1.75;;;;;;;9.78;59.39;99654.13;4101394;28;20039;-75
2023/04/13 09:31:34;;;;;;;6.22;1.70;;;;;;;10.00;59.91;99654.19;4104286;28;20067;-76
2023/04/13 09:33:45;;;;;;;7.93;1.77;;;;;;;9.88;58.24;99649.81;4106647;28;20106;-76
2023/04/13 09:35:48;;;;;;;6.78;1.40;;;;;;;9.96;58.70;99660.25;4099987;28;20035;-76
2023/04/13 09:37:54;;;;;;;3.05;1.30;;;;;;;10.04;58.75;99663.72;4108583;28;20039;-76
2023/04/13 09:40:09;;;;;;;6.65;1.83;;;;;;;10.11;59.05;99652.50;4113650;28;20046;-75
2023/04/13 09:42:14;;;;;;;7.72;1.85;;;;;;;10.07;59.58;99657.69;4102268;28;20034;-75
2023/04/13 09:44:19;;;;;;;;;;;;;;;9.98;59.64;99663.72;4106438;28;20073;-76
2023/04/13 09:46:23;;;;;;;7.85;1.65;;;;;;;9.99;59.69;99660.28;4101866;28;19932;-75
2023/04/13 09:48:26;;;;;;;6.65;1.83;;;;;;;10.19;59.35;99654.25;4099758;28;20035;-75
2023/04/13 09:50:31;;;;;;;9.50;2.00;;;;;;;10.26;58.67;99661.22;4099496;28;20126;-75
2023/04/13 09:52:34;;;;;;;13.35;2.28;;;;;;;10.22;58.59;99664.66;4114772;28;20489;-76
2023/04/13 09:54:37;;;;;;;7.45;1.92;;;;;;;10.09;59.01;99656.84;4103268;28;20035;-77
2023/04/13 09:56:45;;;;;;;8.05;1.70;;;;;;;10.16;59.20;99672.44;4106868;28;20067;-76
2023/04/13 09:58:50;;;;;;;8.90;2.13;;;;;;;10.05;59.10;99664.63;4102342;28;20054;-76
2023/04/13 10:00:53;;;;;;;8.65;1.60;;;;;;;10.02;59.26;99656.81;4111801;28;20070;-76